ASA1371 KPDX-PAKT
Flight info
| Callsign | ASA1371 |
|---|---|
| Flight time | N/A |
| Altitude | 38000 |
| Route | PTLD2 ARRIE TOU ANN |
| Aircraft | B739/M-SDE2E3FGHIRWXY/LB1 |
Departure
| Time | 2026-05-04 06:28 |
|---|---|
| Airport | Portland International Airport (KPDX) |
Arrival
| Time | N/A |
|---|---|
| Airport | Ketchikan International Airport (PAKT) |
| Time | Latitude | Longitude | Altitude | Speed | Heading |
|---|---|---|---|---|---|
| 2026-05-04 06:03 | 45.58923 | -122.59582 | 28 ft | 0 kts | 208° |
| 2026-05-04 06:14 | 45.58937 | -122.59571 | 28 ft | 4 kts | 208° |
| 2026-05-04 06:14 | 45.58958 | -122.59555 | 28 ft | 3 kts | 209° |
| 2026-05-04 06:15 | 45.58975 | -122.59533 | 28 ft | 4 kts | 261° |
| 2026-05-04 06:15 | 45.58971 | -122.59499 | 29 ft | 4 kts | 298° |
| 2026-05-04 06:15 | 45.58966 | -122.59487 | 29 ft | 0 kts | 299° |
| 2026-05-04 06:20 | 45.59019 | -122.59623 | 28 ft | 0 kts | 299° |
| 2026-05-04 06:20 | 45.59053 | -122.59710 | 28 ft | 15 kts | 299° |
| 2026-05-04 06:21 | 45.59092 | -122.59812 | 28 ft | 0 kts | 299° |
| 2026-05-04 06:25 | 45.58194 | -122.58435 | 27 ft | 20 kts | 120° |
| 2026-05-04 06:25 | 45.58161 | -122.58375 | 27 ft | 0 kts | 145° |
| 2026-05-04 06:26 | 45.58157 | -122.58371 | 27 ft | 6 kts | 149° |
| 2026-05-04 06:26 | 45.58079 | -122.58444 | 28 ft | 15 kts | 278° |
| 2026-05-04 06:26 | 45.58085 | -122.58470 | 28 ft | 0 kts | 292° |
| 2026-05-04 06:27 | 45.58468 | -122.59467 | 28 ft | 136 kts | 298° |
| 2026-05-04 06:28 | 45.59009 | -122.60848 | 355 ft | 172 kts | 299° |
| 2026-05-04 06:28 | 45.59641 | -122.62394 | 1080 ft | 189 kts | 301° |
| 2026-05-04 06:28 | 45.60290 | -122.64037 | 2067 ft | 186 kts | 302° |
| 2026-05-04 06:28 | 45.60909 | -122.65623 | 2966 ft | 186 kts | 303° |
| 2026-05-04 06:29 | 45.61605 | -122.67340 | 3243 ft | 214 kts | 302° |
| 2026-05-04 06:29 | 45.62374 | -122.69307 | 3515 ft | 237 kts | 300° |
| 2026-05-04 06:29 | 45.63281 | -122.71318 | 4013 ft | 249 kts | 317° |
| 2026-05-04 06:29 | 45.64859 | -122.72464 | 4482 ft | 263 kts | 347° |
| 2026-05-04 06:30 | 45.66646 | -122.73000 | 5256 ft | 268 kts | 348° |
| 2026-05-04 06:30 | 45.68217 | -122.73440 | 5979 ft | 271 kts | 348° |
| 2026-05-04 06:31 | 45.68957 | -122.73648 | 6307 ft | 273 kts | 348° |
| 2026-05-04 06:31 | 45.70023 | -122.73951 | 6757 ft | 276 kts | 348° |
| 2026-05-04 06:31 | 45.70649 | -122.74132 | 6992 ft | 277 kts | 348° |
| 2026-05-04 06:31 | 45.72554 | -122.74692 | 7780 ft | 282 kts | 347° |
| 2026-05-04 06:32 | 45.74476 | -122.75273 | 8618 ft | 284 kts | 347° |
| 2026-05-04 06:33 | 45.90036 | -122.80255 | 12108 ft | 371 kts | 347° |
| 2026-05-04 06:34 | 45.92552 | -122.81076 | 12869 ft | 372 kts | 347° |
| 2026-05-04 06:34 | 45.95087 | -122.81906 | 13572 ft | 375 kts | 347° |
| 2026-05-04 06:34 | 45.97643 | -122.82745 | 14202 ft | 378 kts | 347° |
| 2026-05-04 06:34 | 46.00223 | -122.83592 | 14801 ft | 381 kts | 348° |
| 2026-05-04 06:35 | 46.02819 | -122.84445 | 15430 ft | 384 kts | 348° |
| 2026-05-04 06:36 | 46.21509 | -122.90617 | 19382 ft | 404 kts | 348° |
| 2026-05-04 06:37 | 46.24257 | -122.91528 | 19903 ft | 406 kts | 348° |
| 2026-05-04 06:37 | 46.27023 | -122.92447 | 20418 ft | 409 kts | 348° |
| 2026-05-04 06:37 | 46.29801 | -122.93370 | 20922 ft | 411 kts | 349° |
| 2026-05-04 06:37 | 46.32604 | -122.94302 | 21414 ft | 414 kts | 349° |
| 2026-05-04 06:38 | 46.35415 | -122.95239 | 21897 ft | 417 kts | 349° |
| 2026-05-04 06:38 | 46.38253 | -122.96185 | 22362 ft | 420 kts | 349° |
| 2026-05-04 06:40 | 46.58502 | -123.02960 | 25414 ft | 433 kts | 349° |
| 2026-05-04 06:40 | 46.61482 | -123.03961 | 25857 ft | 434 kts | 349° |
| 2026-05-04 06:40 | 46.64430 | -123.04953 | 26249 ft | 436 kts | 350° |
| 2026-05-04 06:40 | 46.67352 | -123.05938 | 26614 ft | 438 kts | 350° |
| 2026-05-04 06:41 | 46.70326 | -123.06941 | 26983 ft | 440 kts | 350° |
| 2026-05-04 06:41 | 46.73312 | -123.07950 | 27360 ft | 442 kts | 350° |
| 2026-05-04 06:41 | 46.76317 | -123.08966 | 27720 ft | 444 kts | 350° |
| 2026-05-04 06:41 | 46.79332 | -123.09988 | 28091 ft | 445 kts | 349° |
| 2026-05-04 06:42 | 46.82353 | -123.11012 | 28402 ft | 448 kts | 350° |
| 2026-05-04 06:42 | 46.85397 | -123.12045 | 28758 ft | 449 kts | 350° |
| 2026-05-04 06:42 | 46.88443 | -123.13080 | 29269 ft | 447 kts | 350° |
| 2026-05-04 06:44 | 47.09209 | -123.20180 | 32520 ft | 430 kts | 351° |
| 2026-05-04 06:44 | 47.12110 | -123.21174 | 32977 ft | 426 kts | 352° |
| 2026-05-04 06:44 | 47.14991 | -123.22162 | 33416 ft | 424 kts | 352° |
| 2026-05-04 06:45 | 47.17858 | -123.23146 | 33823 ft | 422 kts | 352° |
| 2026-05-04 06:45 | 47.20708 | -123.24127 | 34169 ft | 420 kts | 352° |
| 2026-05-04 06:45 | 47.23547 | -123.25104 | 34488 ft | 418 kts | 352° |
| 2026-05-04 06:45 | 47.26380 | -123.26081 | 34753 ft | 418 kts | 352° |
| 2026-05-04 06:46 | 47.29210 | -123.27058 | 35050 ft | 417 kts | 351° |
| 2026-05-04 06:46 | 47.32021 | -123.28030 | 35431 ft | 413 kts | 351° |
| 2026-05-04 06:46 | 47.34809 | -123.28995 | 35781 ft | 411 kts | 352° |
| 2026-05-04 06:46 | 47.37587 | -123.29956 | 36045 ft | 410 kts | 352° |
| 2026-05-04 06:48 | 47.56796 | -123.36634 | 37672 ft | 401 kts | 352° |
| 2026-05-04 06:48 | 47.59513 | -123.37584 | 37834 ft | 401 kts | 352° |